sensor_id;sensor_type;location;lat;lon;timestamp;P1;durP1;ratioP1;P2;durP2;ratioP2
5754;SDS011;2902;42.130;24.732;2023-09-07T00:01:49;12.03;;;9.73;;
5754;SDS011;2902;42.130;24.732;2023-09-07T00:04:17;9.67;;;8.90;;
5754;SDS011;2902;42.130;24.732;2023-09-07T00:06:44;10.77;;;8.83;;
5754;SDS011;2902;42.130;24.732;2023-09-07T00:09:12;10.10;;;9.27;;
5754;SDS011;2902;42.130;24.732;2023-09-07T00:11:41;8.80;;;8.30;;
5754;SDS011;2902;42.130;24.732;2023-09-07T00:14:07;9.23;;;8.60;;
5754;SDS011;2902;42.130;24.732;2023-09-07T00:16:34;8.77;;;8.17;;
5754;SDS011;2902;42.130;24.732;2023-09-07T00:19:03;9.57;;;8.63;;
5754;SDS011;2902;42.130;24.732;2023-09-07T00:21:29;10.17;;;9.23;;
5754;SDS011;2902;42.130;24.732;2023-09-07T00:23:56;10.47;;;9.37;;
5754;SDS011;2902;42.130;24.732;2023-09-07T00:26:24;10.23;;;8.17;;
5754;SDS011;2902;42.130;24.732;2023-09-07T00:28:51;8.67;;;7.97;;
5754;SDS011;2902;42.130;24.732;2023-09-07T00:31:17;9.13;;;8.23;;
5754;SDS011;2902;42.130;24.732;2023-09-07T00:33:44;11.63;;;8.80;;
5754;SDS011;2902;42.130;24.732;2023-09-07T00:36:11;9.13;;;8.23;;
5754;SDS011;2902;42.130;24.732;2023-09-07T00:38:37;9.13;;;8.53;;
5754;SDS011;2902;42.130;24.732;2023-09-07T00:41:04;9.07;;;8.27;;
5754;SDS011;2902;42.130;24.732;2023-09-07T00:43:32;9.97;;;8.93;;
5754;SDS011;2902;42.130;24.732;2023-09-07T00:45:59;8.67;;;8.00;;
5754;SDS011;2902;42.130;24.732;2023-09-07T00:48:25;12.03;;;8.67;;
5754;SDS011;2902;42.130;24.732;2023-09-07T00:50:52;9.80;;;8.97;;
5754;SDS011;2902;42.130;24.732;2023-09-07T00:53:19;10.70;;;9.80;;
5754;SDS011;2902;42.130;24.732;2023-09-07T00:55:47;11.50;;;10.70;;
5754;SDS011;2902;42.130;24.732;2023-09-07T00:58:14;10.93;;;10.03;;
5754;SDS011;2902;42.130;24.732;2023-09-07T01:00:42;10.93;;;10.13;;
5754;SDS011;2902;42.130;24.732;2023-09-07T01:03:09;11.40;;;10.50;;
5754;SDS011;2902;42.130;24.732;2023-09-07T01:05:39;12.17;;;10.93;;
5754;SDS011;2902;42.130;24.732;2023-09-07T01:08:10;11.50;;;10.63;;
5754;SDS011;2902;42.130;24.732;2023-09-07T01:10:42;12.13;;;11.13;;
5754;SDS011;2902;42.130;24.732;2023-09-07T01:13:08;11.50;;;10.50;;
5754;SDS011;2902;42.130;24.732;2023-09-07T01:15:35;12.00;;;10.73;;
5754;SDS011;2902;42.130;24.732;2023-09-07T01:18:04;19.20;;;11.90;;
5754;SDS011;2902;42.130;24.732;2023-09-07T01:20:34;12.83;;;11.73;;
5754;SDS011;2902;42.130;24.732;2023-09-07T01:23:03;13.57;;;12.40;;
5754;SDS011;2902;42.130;24.732;2023-09-07T01:25:30;14.57;;;13.07;;
5754;SDS011;2902;42.130;24.732;2023-09-07T01:27:58;16.33;;;12.70;;
5754;SDS011;2902;42.130;24.732;2023-09-07T01:30:26;13.47;;;12.50;;
5754;SDS011;2902;42.130;24.732;2023-09-07T01:32:53;14.37;;;13.27;;
5754;SDS011;2902;42.130;24.732;2023-09-07T01:35:20;15.63;;;14.17;;
5754;SDS011;2902;42.130;24.732;2023-09-07T01:37:48;15.30;;;13.77;;
5754;SDS011;2902;42.130;24.732;2023-09-07T01:40:16;15.97;;;14.47;;
5754;SDS011;2902;42.130;24.732;2023-09-07T01:42:43;16.50;;;14.83;;
5754;SDS011;2902;42.130;24.732;2023-09-07T01:45:10;16.77;;;15.00;;
5754;SDS011;2902;42.130;24.732;2023-09-07T01:47:36;15.77;;;14.23;;
5754;SDS011;2902;42.130;24.732;2023-09-07T01:50:03;17.00;;;15.20;;
5754;SDS011;2902;42.130;24.732;2023-09-07T01:52:31;18.50;;;15.30;;
5754;SDS011;2902;42.130;24.732;2023-09-07T01:54:57;16.47;;;15.03;;
5754;SDS011;2902;42.130;24.732;2023-09-07T01:57:25;17.10;;;15.53;;
5754;SDS011;2902;42.130;24.732;2023-09-07T01:59:52;18.50;;;16.23;;
5754;SDS011;2902;42.130;24.732;2023-09-07T02:02:19;18.03;;;16.47;;
5754;SDS011;2902;42.130;24.732;2023-09-07T02:04:46;16.80;;;15.37;;
5754;SDS011;2902;42.130;24.732;2023-09-07T02:07:12;17.20;;;15.63;;
5754;SDS011;2902;42.130;24.732;2023-09-07T02:09:39;17.03;;;15.50;;
5754;SDS011;2902;42.130;24.732;2023-09-07T02:12:06;16.40;;;14.77;;
5754;SDS011;2902;42.130;24.732;2023-09-07T02:14:34;17.77;;;15.83;;
5754;SDS011;2902;42.130;24.732;2023-09-07T02:17:01;17.50;;;15.70;;
5754;SDS011;2902;42.130;24.732;2023-09-07T02:19:28;18.57;;;16.67;;
5754;SDS011;2902;42.130;24.732;2023-09-07T02:21:54;17.37;;;15.67;;
5754;SDS011;2902;42.130;24.732;2023-09-07T02:24:21;17.07;;;15.37;;
5754;SDS011;2902;42.130;24.732;2023-09-07T02:26:48;18.80;;;16.90;;
5754;SDS011;2902;42.130;24.732;2023-09-07T02:29:15;18.97;;;17.13;;
5754;SDS011;2902;42.130;24.732;2023-09-07T02:31:43;19.43;;;17.40;;
5754;SDS011;2902;42.130;24.732;2023-09-07T02:34:10;23.70;;;18.70;;
5754;SDS011;2902;42.130;24.732;2023-09-07T02:36:36;20.07;;;18.20;;
5754;SDS011;2902;42.130;24.732;2023-09-07T02:39:03;18.80;;;16.83;;
5754;SDS011;2902;42.130;24.732;2023-09-07T02:41:31;21.27;;;18.70;;
5754;SDS011;2902;42.130;24.732;2023-09-07T02:43:57;18.43;;;16.63;;
5754;SDS011;2902;42.130;24.732;2023-09-07T02:46:24;22.40;;;19.37;;
5754;SDS011;2902;42.130;24.732;2023-09-07T02:48:52;20.20;;;17.80;;
5754;SDS011;2902;42.130;24.732;2023-09-07T02:51:22;19.77;;;17.77;;
5754;SDS011;2902;42.130;24.732;2023-09-07T02:53:48;20.13;;;18.17;;
5754;SDS011;2902;42.130;24.732;2023-09-07T02:56:15;22.30;;;19.47;;
5754;SDS011;2902;42.130;24.732;2023-09-07T02:58:42;20.20;;;18.40;;
5754;SDS011;2902;42.130;24.732;2023-09-07T03:01:10;20.57;;;18.43;;
5754;SDS011;2902;42.130;24.732;2023-09-07T03:03:38;19.93;;;18.03;;
5754;SDS011;2902;42.130;24.732;2023-09-07T03:06:10;20.90;;;18.13;;
5754;SDS011;2902;42.130;24.732;2023-09-07T03:08:39;23.97;;;18.63;;
5754;SDS011;2902;42.130;24.732;2023-09-07T03:11:06;19.10;;;16.93;;
5754;SDS011;2902;42.130;24.732;2023-09-07T03:13:33;23.43;;;18.17;;
5754;SDS011;2902;42.130;24.732;2023-09-07T03:16:01;20.20;;;18.27;;
5754;SDS011;2902;42.130;24.732;2023-09-07T03:18:29;22.57;;;18.77;;
5754;SDS011;2902;42.130;24.732;2023-09-07T03:20:58;19.63;;;17.93;;
5754;SDS011;2902;42.130;24.732;2023-09-07T03:23:28;20.40;;;18.40;;
5754;SDS011;2902;42.130;24.732;2023-09-07T03:25:55;17.97;;;16.23;;
5754;SDS011;2902;42.130;24.732;2023-09-07T03:28:22;19.33;;;17.53;;
5754;SDS011;2902;42.130;24.732;2023-09-07T03:30:49;22.73;;;18.27;;
5754;SDS011;2902;42.130;24.732;2023-09-07T03:33:15;21.00;;;17.60;;
5754;SDS011;2902;42.130;24.732;2023-09-07T03:35:42;19.93;;;16.50;;
5754;SDS011;2902;42.130;24.732;2023-09-07T03:38:09;20.43;;;18.40;;
5754;SDS011;2902;42.130;24.732;2023-09-07T03:40:37;21.97;;;18.37;;
5754;SDS011;2902;42.130;24.732;2023-09-07T03:43:03;18.10;;;16.50;;
5754;SDS011;2902;42.130;24.732;2023-09-07T03:45:30;20.10;;;18.07;;
5754;SDS011;2902;42.130;24.732;2023-09-07T03:47:57;19.63;;;17.60;;
5754;SDS011;2902;42.130;24.732;2023-09-07T03:50:24;18.67;;;16.90;;
5754;SDS011;2902;42.130;24.732;2023-09-07T03:52:50;20.87;;;18.20;;
5754;SDS011;2902;42.130;24.732;2023-09-07T03:55:17;18.83;;;16.93;;
5754;SDS011;2902;42.130;24.732;2023-09-07T03:57:45;19.33;;;17.33;;
5754;SDS011;2902;42.130;24.732;2023-09-07T04:00:12;20.50;;;18.57;;
5754;SDS011;2902;42.130;24.732;2023-09-07T04:02:41;22.70;;;18.97;;
5754;SDS011;2902;42.130;24.732;2023-09-07T04:05:07;21.13;;;19.07;;
5754;SDS011;2902;42.130;24.732;2023-09-07T04:07:35;20.93;;;18.73;;
5754;SDS011;2902;42.130;24.732;2023-09-07T04:10:02;20.13;;;17.87;;
5754;SDS011;2902;42.130;24.732;2023-09-07T04:12:29;22.50;;;18.20;;
5754;SDS011;2902;42.130;24.732;2023-09-07T04:14:57;20.27;;;16.80;;
5754;SDS011;2902;42.130;24.732;2023-09-07T04:17:24;28.97;;;18.67;;
5754;SDS011;2902;42.130;24.732;2023-09-07T04:19:51;20.07;;;18.00;;
5754;SDS011;2902;42.130;24.732;2023-09-07T04:22:17;20.67;;;18.00;;
5754;SDS011;2902;42.130;24.732;2023-09-07T04:24:46;21.53;;;16.83;;
5754;SDS011;2902;42.130;24.732;2023-09-07T04:27:13;26.03;;;16.87;;
5754;SDS011;2902;42.130;24.732;2023-09-07T04:29:40;17.77;;;15.87;;
5754;SDS011;2902;42.130;24.732;2023-09-07T04:32:08;19.23;;;17.30;;
5754;SDS011;2902;42.130;24.732;2023-09-07T04:34:35;19.70;;;15.80;;
5754;SDS011;2902;42.130;24.732;2023-09-07T04:37:01;33.13;;;16.43;;
5754;SDS011;2902;42.130;24.732;2023-09-07T04:39:28;26.13;;;16.90;;
5754;SDS011;2902;42.130;24.732;2023-09-07T04:41:55;24.47;;;17.47;;
5754;SDS011;2902;42.130;24.732;2023-09-07T04:44:21;17.10;;;14.13;;
5754;SDS011;2902;42.130;24.732;2023-09-07T04:46:48;23.77;;;14.90;;
5754;SDS011;2902;42.130;24.732;2023-09-07T04:49:16;19.27;;;14.90;;
5754;SDS011;2902;42.130;24.732;2023-09-07T04:51:43;21.23;;;14.43;;
5754;SDS011;2902;42.130;24.732;2023-09-07T04:54:09;15.33;;;13.80;;
5754;SDS011;2902;42.130;24.732;2023-09-07T04:56:36;15.10;;;13.47;;
5754;SDS011;2902;42.130;24.732;2023-09-07T04:59:03;17.30;;;14.27;;
5754;SDS011;2902;42.130;24.732;2023-09-07T05:01:29;13.73;;;12.37;;
5754;SDS011;2902;42.130;24.732;2023-09-07T05:03:57;17.40;;;15.67;;
5754;SDS011;2902;42.130;24.732;2023-09-07T05:06:25;21.43;;;16.53;;
5754;SDS011;2902;42.130;24.732;2023-09-07T05:08:52;14.90;;;12.90;;
5754;SDS011;2902;42.130;24.732;2023-09-07T05:11:18;19.37;;;13.10;;
5754;SDS011;2902;42.130;24.732;2023-09-07T05:13:45;18.83;;;13.97;;
5754;SDS011;2902;42.130;24.732;2023-09-07T05:16:12;19.27;;;15.03;;
5754;SDS011;2902;42.130;24.732;2023-09-07T05:18:40;14.47;;;11.93;;
5754;SDS011;2902;42.130;24.732;2023-09-07T05:21:11;15.70;;;13.53;;
5754;SDS011;2902;42.130;24.732;2023-09-07T05:23:39;19.97;;;14.67;;
5754;SDS011;2902;42.130;24.732;2023-09-07T05:26:06;19.43;;;11.90;;
5754;SDS011;2902;42.130;24.732;2023-09-07T05:28:33;13.40;;;12.13;;
5754;SDS011;2902;42.130;24.732;2023-09-07T05:31:00;15.83;;;12.03;;
5754;SDS011;2902;42.130;24.732;2023-09-07T05:33:26;12.23;;;11.00;;
5754;SDS011;2902;42.130;24.732;2023-09-07T05:35:53;12.33;;;10.63;;
5754;SDS011;2902;42.130;24.732;2023-09-07T05:38:20;11.77;;;10.57;;
5754;SDS011;2902;42.130;24.732;2023-09-07T05:40:48;12.37;;;11.13;;
5754;SDS011;2902;42.130;24.732;2023-09-07T05:43:19;11.70;;;10.53;;
5754;SDS011;2902;42.130;24.732;2023-09-07T05:45:45;16.43;;;11.07;;
5754;SDS011;2902;42.130;24.732;2023-09-07T05:48:12;12.07;;;10.23;;
5754;SDS011;2902;42.130;24.732;2023-09-07T05:50:41;11.20;;;10.23;;
5754;SDS011;2902;42.130;24.732;2023-09-07T05:53:08;12.57;;;11.27;;
5754;SDS011;2902;42.130;24.732;2023-09-07T05:55:35;12.73;;;10.37;;
5754;SDS011;2902;42.130;24.732;2023-09-07T05:58:04;15.00;;;13.53;;
5754;SDS011;2902;42.130;24.732;2023-09-07T06:00:32;14.20;;;12.57;;
5754;SDS011;2902;42.130;24.732;2023-09-07T06:02:59;12.80;;;11.53;;
5754;SDS011;2902;42.130;24.732;2023-09-07T06:05:27;11.87;;;10.97;;
5754;SDS011;2902;42.130;24.732;2023-09-07T06:07:53;12.77;;;11.47;;
5754;SDS011;2902;42.130;24.732;2023-09-07T06:10:20;11.73;;;10.13;;
5754;SDS011;2902;42.130;24.732;2023-09-07T06:12:47;10.30;;;9.43;;
5754;SDS011;2902;42.130;24.732;2023-09-07T06:15:16;11.63;;;10.53;;
5754;SDS011;2902;42.130;24.732;2023-09-07T06:17:42;10.93;;;9.90;;
5754;SDS011;2902;42.130;24.732;2023-09-07T06:20:10;11.97;;;10.80;;
5754;SDS011;2902;42.130;24.732;2023-09-07T06:22:37;14.07;;;11.13;;
5754;SDS011;2902;42.130;24.732;2023-09-07T06:25:04;15.53;;;11.50;;
5754;SDS011;2902;42.130;24.732;2023-09-07T06:27:31;12.27;;;11.13;;
5754;SDS011;2902;42.130;24.732;2023-09-07T06:29:58;12.60;;;11.40;;
5754;SDS011;2902;42.130;24.732;2023-09-07T06:32:26;10.07;;;9.13;;
5754;SDS011;2902;42.130;24.732;2023-09-07T06:34:53;10.73;;;9.77;;
5754;SDS011;2902;42.130;24.732;2023-09-07T06:37:19;17.10;;;12.20;;
5754;SDS011;2902;42.130;24.732;2023-09-07T06:39:46;18.70;;;11.57;;
5754;SDS011;2902;42.130;24.732;2023-09-07T06:42:12;13.30;;;9.97;;
5754;SDS011;2902;42.130;24.732;2023-09-07T06:44:40;10.27;;;9.17;;
5754;SDS011;2902;42.130;24.732;2023-09-07T06:47:08;29.27;;;11.23;;
5754;SDS011;2902;42.130;24.732;2023-09-07T06:49:37;10.47;;;9.37;;
5754;SDS011;2902;42.130;24.732;2023-09-07T06:52:04;10.00;;;9.03;;
5754;SDS011;2902;42.130;24.732;2023-09-07T06:54:30;18.67;;;10.90;;
5754;SDS011;2902;42.130;24.732;2023-09-07T06:56:57;12.23;;;10.73;;
5754;SDS011;2902;42.130;24.732;2023-09-07T06:59:24;9.33;;;8.53;;
5754;SDS011;2902;42.130;24.732;2023-09-07T07:01:50;11.23;;;10.07;;
5754;SDS011;2902;42.130;24.732;2023-09-07T07:04:17;11.47;;;10.47;;
5754;SDS011;2902;42.130;24.732;2023-09-07T07:06:45;12.63;;;10.57;;
5754;SDS011;2902;42.130;24.732;2023-09-07T07:09:12;13.80;;;10.40;;
5754;SDS011;2902;42.130;24.732;2023-09-07T07:11:39;15.00;;;10.07;;
5754;SDS011;2902;42.130;24.732;2023-09-07T07:14:06;9.90;;;8.97;;
5754;SDS011;2902;42.130;24.732;2023-09-07T07:16:33;14.53;;;10.03;;
5754;SDS011;2902;42.130;24.732;2023-09-07T07:19:00;43.50;;;11.97;;
5754;SDS011;2902;42.130;24.732;2023-09-07T07:21:27;14.27;;;10.23;;
5754;SDS011;2902;42.130;24.732;2023-09-07T07:23:55;15.03;;;11.03;;
5754;SDS011;2902;42.130;24.732;2023-09-07T07:26:21;25.43;;;10.47;;
5754;SDS011;2902;42.130;24.732;2023-09-07T07:28:48;25.53;;;10.73;;
5754;SDS011;2902;42.130;24.732;2023-09-07T07:31:15;25.33;;;9.60;;
5754;SDS011;2902;42.130;24.732;2023-09-07T07:33:41;12.40;;;8.90;;
5754;SDS011;2902;42.130;24.732;2023-09-07T07:36:08;11.83;;;10.67;;
5754;SDS011;2902;42.130;24.732;2023-09-07T07:38:35;16.73;;;10.57;;
5754;SDS011;2902;42.130;24.732;2023-09-07T07:41:03;9.90;;;9.10;;
5754;SDS011;2902;42.130;24.732;2023-09-07T07:43:30;12.97;;;10.13;;
5754;SDS011;2902;42.130;24.732;2023-09-07T07:45:58;11.03;;;9.63;;
5754;SDS011;2902;42.130;24.732;2023-09-07T07:48:25;10.20;;;9.23;;
5754;SDS011;2902;42.130;24.732;2023-09-07T07:50:53;9.67;;;8.87;;
5754;SDS011;2902;42.130;24.732;2023-09-07T07:53:20;11.10;;;9.73;;
5754;SDS011;2902;42.130;24.732;2023-09-07T07:55:47;10.87;;;8.60;;
5754;SDS011;2902;42.130;24.732;2023-09-07T07:58:15;11.57;;;9.00;;
5754;SDS011;2902;42.130;24.732;2023-09-07T08:00:42;9.80;;;8.37;;
5754;SDS011;2902;42.130;24.732;2023-09-07T08:03:12;13.20;;;8.70;;
5754;SDS011;2902;42.130;24.732;2023-09-07T08:05:39;11.30;;;8.47;;
5754;SDS011;2902;42.130;24.732;2023-09-07T08:08:06;8.63;;;7.80;;
5754;SDS011;2902;42.130;24.732;2023-09-07T08:10:33;14.43;;;9.00;;
5754;SDS011;2902;42.130;24.732;2023-09-07T08:13:02;10.83;;;9.83;;
5754;SDS011;2902;42.130;24.732;2023-09-07T08:15:31;10.53;;;9.63;;
5754;SDS011;2902;42.130;24.732;2023-09-07T08:17:58;10.50;;;9.50;;
5754;SDS011;2902;42.130;24.732;2023-09-07T08:20:25;9.67;;;8.77;;
5754;SDS011;2902;42.130;24.732;2023-09-07T08:22:54;9.77;;;8.77;;
5754;SDS011;2902;42.130;24.732;2023-09-07T08:25:21;10.93;;;9.17;;
5754;SDS011;2902;42.130;24.732;2023-09-07T08:27:48;10.90;;;9.70;;
5754;SDS011;2902;42.130;24.732;2023-09-07T08:30:15;11.27;;;10.17;;
5754;SDS011;2902;42.130;24.732;2023-09-07T08:32:45;12.67;;;10.50;;
5754;SDS011;2902;42.130;24.732;2023-09-07T08:35:12;11.57;;;10.37;;
5754;SDS011;2902;42.130;24.732;2023-09-07T08:37:40;9.27;;;8.50;;
5754;SDS011;2902;42.130;24.732;2023-09-07T08:40:07;14.93;;;9.73;;
5754;SDS011;2902;42.130;24.732;2023-09-07T08:42:36;26.50;;;11.17;;
5754;SDS011;2902;42.130;24.732;2023-09-07T08:45:03;10.80;;;9.93;;
5754;SDS011;2902;42.130;24.732;2023-09-07T08:47:33;14.97;;;10.07;;
5754;SDS011;2902;42.130;24.732;2023-09-07T08:50:02;11.00;;;9.63;;
5754;SDS011;2902;42.130;24.732;2023-09-07T08:52:31;13.27;;;9.90;;
5754;SDS011;2902;42.130;24.732;2023-09-07T08:54:58;10.80;;;9.77;;
5754;SDS011;2902;42.130;24.732;2023-09-07T08:57:26;11.77;;;10.03;;
5754;SDS011;2902;42.130;24.732;2023-09-07T08:59:55;12.63;;;11.07;;
5754;SDS011;2902;42.130;24.732;2023-09-07T09:02:22;15.17;;;9.63;;
5754;SDS011;2902;42.130;24.732;2023-09-07T09:04:49;10.70;;;9.93;;
5754;SDS011;2902;42.130;24.732;2023-09-07T09:07:19;10.30;;;9.37;;
5754;SDS011;2902;42.130;24.732;2023-09-07T09:09:46;10.20;;;9.27;;
5754;SDS011;2902;42.130;24.732;2023-09-07T09:12:13;10.07;;;8.90;;
5754;SDS011;2902;42.130;24.732;2023-09-07T09:14:41;10.83;;;8.53;;
5754;SDS011;2902;42.130;24.732;2023-09-07T09:17:10;9.57;;;8.60;;
5754;SDS011;2902;42.130;24.732;2023-09-07T09:19:39;10.30;;;8.60;;
5754;SDS011;2902;42.130;24.732;2023-09-07T09:22:06;26.73;;;10.80;;
5754;SDS011;2902;42.130;24.732;2023-09-07T09:24:34;10.60;;;8.03;;
5754;SDS011;2902;42.130;24.732;2023-09-07T09:27:01;8.57;;;8.07;;
5754;SDS011;2902;42.130;24.732;2023-09-07T09:29:29;8.47;;;7.73;;
5754;SDS011;2902;42.130;24.732;2023-09-07T09:31:55;9.63;;;8.77;;
5754;SDS011;2902;42.130;24.732;2023-09-07T09:34:22;10.20;;;8.63;;
5754;SDS011;2902;42.130;24.732;2023-09-07T09:36:49;9.77;;;8.17;;
5754;SDS011;2902;42.130;24.732;2023-09-07T09:39:22;11.63;;;8.13;;
5754;SDS011;2902;42.130;24.732;2023-09-07T09:41:51;11.43;;;8.60;;
5754;SDS011;2902;42.130;24.732;2023-09-07T09:44:21;9.10;;;8.20;;
5754;SDS011;2902;42.130;24.732;2023-09-07T09:46:50;17.53;;;8.10;;
5754;SDS011;2902;42.130;24.732;2023-09-07T09:49:19;15.10;;;8.77;;
5754;SDS011;2902;42.130;24.732;2023-09-07T09:51:47;11.70;;;8.30;;
5754;SDS011;2902;42.130;24.732;2023-09-07T09:54:15;15.17;;;7.77;;
5754;SDS011;2902;42.130;24.732;2023-09-07T09:56:43;22.00;;;8.80;;
5754;SDS011;2902;42.130;24.732;2023-09-07T09:59:12;10.57;;;7.80;;
5754;SDS011;2902;42.130;24.732;2023-09-07T10:01:43;8.47;;;7.70;;
5754;SDS011;2902;42.130;24.732;2023-09-07T10:04:11;8.20;;;7.50;;
5754;SDS011;2902;42.130;24.732;2023-09-07T10:06:49;7.83;;;7.17;;
5754;SDS011;2902;42.130;24.732;2023-09-07T10:09:17;8.67;;;8.00;;
5754;SDS011;2902;42.130;24.732;2023-09-07T10:11:50;14.60;;;8.60;;
5754;SDS011;2902;42.130;24.732;2023-09-07T10:14:20;8.87;;;7.93;;
5754;SDS011;2902;42.130;24.732;2023-09-07T10:16:47;12.70;;;7.40;;
5754;SDS011;2902;42.130;24.732;2023-09-07T10:19:17;27.83;;;9.13;;
5754;SDS011;2902;42.130;24.732;2023-09-07T10:21:44;12.63;;;7.50;;
5754;SDS011;2902;42.130;24.732;2023-09-07T10:24:12;11.53;;;7.53;;
5754;SDS011;2902;42.130;24.732;2023-09-07T10:26:55;9.90;;;7.10;;
5754;SDS011;2902;42.130;24.732;2023-09-07T10:29:24;9.00;;;8.07;;
5754;SDS011;2902;42.130;24.732;2023-09-07T10:31:51;8.00;;;7.30;;
5754;SDS011;2902;42.130;24.732;2023-09-07T10:34:18;7.83;;;7.13;;
5754;SDS011;2902;42.130;24.732;2023-09-07T10:36:46;8.37;;;6.50;;
5754;SDS011;2902;42.130;24.732;2023-09-07T10:39:13;8.27;;;7.13;;
5754;SDS011;2902;42.130;24.732;2023-09-07T10:41:41;10.87;;;7.27;;
5754;SDS011;2902;42.130;24.732;2023-09-07T10:44:09;14.00;;;7.03;;
5754;SDS011;2902;42.130;24.732;2023-09-07T10:46:39;17.03;;;7.03;;
5754;SDS011;2902;42.130;24.732;2023-09-07T10:49:06;7.07;;;6.17;;
5754;SDS011;2902;42.130;24.732;2023-09-07T10:51:39;9.37;;;7.40;;
5754;SDS011;2902;42.130;24.732;2023-09-07T10:54:13;17.07;;;6.50;;
5754;SDS011;2902;42.130;24.732;2023-09-07T10:56:42;6.60;;;5.63;;
5754;SDS011;2902;42.130;24.732;2023-09-07T10:59:10;9.33;;;6.10;;
5754;SDS011;2902;42.130;24.732;2023-09-07T11:01:39;9.27;;;5.97;;
5754;SDS011;2902;42.130;24.732;2023-09-07T11:04:06;7.13;;;5.90;;
5754;SDS011;2902;42.130;24.732;2023-09-07T11:06:36;9.70;;;6.17;;
5754;SDS011;2902;42.130;24.732;2023-09-07T11:09:03;9.67;;;6.63;;
5754;SDS011;2902;42.130;24.732;2023-09-07T11:11:33;6.97;;;6.17;;
5754;SDS011;2902;42.130;24.732;2023-09-07T11:14:01;6.37;;;5.87;;
5754;SDS011;2902;42.130;24.732;2023-09-07T11:16:28;6.67;;;6.10;;
5754;SDS011;2902;42.130;24.732;2023-09-07T11:18:57;16.70;;;6.77;;
5754;SDS011;2902;42.130;24.732;2023-09-07T11:21:25;7.70;;;5.60;;
5754;SDS011;2902;42.130;24.732;2023-09-07T11:23:52;10.40;;;5.80;;
5754;SDS011;2902;42.130;24.732;2023-09-07T11:26:19;6.93;;;5.93;;
5754;SDS011;2902;42.130;24.732;2023-09-07T11:28:46;6.43;;;5.93;;
5754;SDS011;2902;42.130;24.732;2023-09-07T11:31:13;7.50;;;6.60;;
5754;SDS011;2902;42.130;24.732;2023-09-07T11:33:45;6.37;;;5.87;;
5754;SDS011;2902;42.130;24.732;2023-09-07T11:36:14;6.00;;;5.60;;
5754;SDS011;2902;42.130;24.732;2023-09-07T11:38:43;8.03;;;6.13;;
5754;SDS011;2902;42.130;24.732;2023-09-07T11:41:11;8.60;;;5.73;;
5754;SDS011;2902;42.130;24.732;2023-09-07T11:43:37;6.73;;;6.00;;
5754;SDS011;2902;42.130;24.732;2023-09-07T11:46:05;7.33;;;5.20;;
5754;SDS011;2902;42.130;24.732;2023-09-07T11:48:31;6.23;;;5.77;;
5754;SDS011;2902;42.130;24.732;2023-09-07T11:50:59;7.40;;;5.30;;
5754;SDS011;2902;42.130;24.732;2023-09-07T11:53:28;5.97;;;5.30;;
5754;SDS011;2902;42.130;24.732;2023-09-07T11:55:55;6.40;;;5.80;;
5754;SDS011;2902;42.130;24.732;2023-09-07T11:58:23;9.87;;;5.70;;
5754;SDS011;2902;42.130;24.732;2023-09-07T12:00:51;5.83;;;5.30;;
5754;SDS011;2902;42.130;24.732;2023-09-07T12:03:18;5.53;;;5.07;;
5754;SDS011;2902;42.130;24.732;2023-09-07T12:05:45;7.70;;;5.63;;
5754;SDS011;2902;42.130;24.732;2023-09-07T12:08:12;5.30;;;5.00;;
5754;SDS011;2902;42.130;24.732;2023-09-07T12:10:41;7.23;;;5.40;;
5754;SDS011;2902;42.130;24.732;2023-09-07T12:13:07;5.30;;;4.97;;
5754;SDS011;2902;42.130;24.732;2023-09-07T12:15:35;6.17;;;4.80;;
5754;SDS011;2902;42.130;24.732;2023-09-07T12:18:01;7.43;;;4.83;;
5754;SDS011;2902;42.130;24.732;2023-09-07T12:20:28;5.63;;;5.07;;
5754;SDS011;2902;42.130;24.732;2023-09-07T12:22:55;10.97;;;5.50;;
5754;SDS011;2902;42.130;24.732;2023-09-07T12:25:22;6.37;;;5.27;;
5754;SDS011;2902;42.130;24.732;2023-09-07T12:27:50;6.40;;;4.70;;
5754;SDS011;2902;42.130;24.732;2023-09-07T12:30:17;10.57;;;5.67;;
5754;SDS011;2902;42.130;24.732;2023-09-07T12:32:45;8.23;;;5.17;;
5754;SDS011;2902;42.130;24.732;2023-09-07T12:35:12;5.83;;;5.17;;
5754;SDS011;2902;42.130;24.732;2023-09-07T12:37:40;12.57;;;5.37;;
5754;SDS011;2902;42.130;24.732;2023-09-07T12:40:07;17.07;;;5.30;;
5754;SDS011;2902;42.130;24.732;2023-09-07T12:42:37;10.03;;;5.93;;
5754;SDS011;2902;42.130;24.732;2023-09-07T12:45:08;15.50;;;6.40;;
5754;SDS011;2902;42.130;24.732;2023-09-07T12:47:35;6.03;;;5.40;;
5754;SDS011;2902;42.130;24.732;2023-09-07T12:50:03;9.87;;;5.30;;
5754;SDS011;2902;42.130;24.732;2023-09-07T12:52:32;12.63;;;5.63;;
5754;SDS011;2902;42.130;24.732;2023-09-07T12:55:00;6.83;;;5.17;;
5754;SDS011;2902;42.130;24.732;2023-09-07T12:57:27;6.70;;;5.83;;
5754;SDS011;2902;42.130;24.732;2023-09-07T12:59:54;6.23;;;5.57;;
5754;SDS011;2902;42.130;24.732;2023-09-07T13:02:22;5.77;;;4.90;;
5754;SDS011;2902;42.130;24.732;2023-09-07T13:04:49;7.30;;;5.00;;
5754;SDS011;2902;42.130;24.732;2023-09-07T13:07:16;5.60;;;5.10;;
5754;SDS011;2902;42.130;24.732;2023-09-07T13:09:43;6.10;;;5.60;;
5754;SDS011;2902;42.130;24.732;2023-09-07T13:12:10;7.07;;;5.33;;
5754;SDS011;2902;42.130;24.732;2023-09-07T13:14:37;6.37;;;5.80;;
5754;SDS011;2902;42.130;24.732;2023-09-07T13:17:04;6.70;;;5.20;;
5754;SDS011;2902;42.130;24.732;2023-09-07T13:19:33;6.67;;;5.43;;
5754;SDS011;2902;42.130;24.732;2023-09-07T13:22:01;5.83;;;5.23;;
5754;SDS011;2902;42.130;24.732;2023-09-07T13:24:28;13.77;;;5.13;;
5754;SDS011;2902;42.130;24.732;2023-09-07T13:26:55;6.20;;;5.80;;
5754;SDS011;2902;42.130;24.732;2023-09-07T13:29:22;5.80;;;5.40;;
5754;SDS011;2902;42.130;24.732;2023-09-07T13:31:50;14.63;;;5.73;;
5754;SDS011;2902;42.130;24.732;2023-09-07T13:34:17;10.80;;;6.40;;
5754;SDS011;2902;42.130;24.732;2023-09-07T13:36:45;16.53;;;6.60;;
5754;SDS011;2902;42.130;24.732;2023-09-07T13:39:12;9.77;;;7.57;;
5754;SDS011;2902;42.130;24.732;2023-09-07T13:41:39;7.80;;;5.53;;
5754;SDS011;2902;42.130;24.732;2023-09-07T13:44:06;9.47;;;6.83;;
5754;SDS011;2902;42.130;24.732;2023-09-07T13:46:32;8.13;;;7.43;;
5754;SDS011;2902;42.130;24.732;2023-09-07T13:48:59;10.17;;;6.10;;
5754;SDS011;2902;42.130;24.732;2023-09-07T13:51:26;7.50;;;6.20;;
5754;SDS011;2902;42.130;24.732;2023-09-07T13:53:54;11.37;;;6.50;;
5754;SDS011;2902;42.130;24.732;2023-09-07T13:56:21;9.67;;;6.30;;
5754;SDS011;2902;42.130;24.732;2023-09-07T13:58:48;6.43;;;5.93;;
5754;SDS011;2902;42.130;24.732;2023-09-07T14:01:15;6.37;;;5.67;;
5754;SDS011;2902;42.130;24.732;2023-09-07T14:03:42;6.80;;;6.13;;
5754;SDS011;2902;42.130;24.732;2023-09-07T14:06:08;6.17;;;5.57;;
5754;SDS011;2902;42.130;24.732;2023-09-07T14:08:35;5.80;;;5.40;;
5754;SDS011;2902;42.130;24.732;2023-09-07T14:11:04;6.03;;;5.63;;
5754;SDS011;2902;42.130;24.732;2023-09-07T14:13:31;7.77;;;5.97;;
5754;SDS011;2902;42.130;24.732;2023-09-07T14:16:00;6.77;;;6.00;;
5754;SDS011;2902;42.130;24.732;2023-09-07T14:18:27;6.10;;;5.47;;
5754;SDS011;2902;42.130;24.732;2023-09-07T14:20:54;9.20;;;5.93;;
5754;SDS011;2902;42.130;24.732;2023-09-07T14:23:23;12.73;;;6.07;;
5754;SDS011;2902;42.130;24.732;2023-09-07T14:25:51;6.37;;;5.90;;
5754;SDS011;2902;42.130;24.732;2023-09-07T14:28:19;7.13;;;5.40;;
5754;SDS011;2902;42.130;24.732;2023-09-07T14:30:46;6.40;;;5.63;;
5754;SDS011;2902;42.130;24.732;2023-09-07T14:33:13;6.60;;;5.90;;
5754;SDS011;2902;42.130;24.732;2023-09-07T14:35:40;9.53;;;6.30;;
5754;SDS011;2902;42.130;24.732;2023-09-07T14:38:07;10.90;;;5.80;;
5754;SDS011;2902;42.130;24.732;2023-09-07T14:40:34;32.57;;;7.60;;
5754;SDS011;2902;42.130;24.732;2023-09-07T14:43:01;6.27;;;5.77;;
5754;SDS011;2902;42.130;24.732;2023-09-07T14:45:29;8.67;;;5.10;;
5754;SDS011;2902;42.130;24.732;2023-09-07T14:47:56;6.47;;;5.93;;